createdAt,value
2022-08-09T00:00:04.383Z,21.80
2022-08-09T00:02:49.161Z,21.80
2022-08-09T00:06:19.426Z,21.80
2022-08-09T00:08:31.846Z,21.70
2022-08-09T00:11:05.947Z,21.70
2022-08-09T00:13:51.215Z,21.70
2022-08-09T00:16:26.368Z,21.70
2022-08-09T00:19:09.588Z,21.60
2022-08-09T00:21:55.594Z,21.60
2022-08-09T00:24:27.209Z,21.60
2022-08-09T00:26:54.996Z,21.60
2022-08-09T00:29:39.676Z,21.50
2022-08-09T00:32:09.064Z,21.50
2022-08-09T00:34:39.777Z,21.50
2022-08-09T00:37:15.272Z,21.50
2022-08-09T00:40:13.460Z,21.50
2022-08-09T00:44:15.770Z,21.40
2022-08-09T00:45:16.508Z,21.40
2022-08-09T00:47:47.217Z,21.40
2022-08-09T00:50:15.166Z,21.30
2022-08-09T00:52:42.932Z,21.20
2022-08-09T00:55:32.898Z,21.20
2022-08-09T00:57:59.142Z,21.20
2022-08-09T01:00:27.682Z,21.30
2022-08-09T01:02:58.748Z,21.20
2022-08-09T01:05:51.761Z,21.20
2022-08-09T01:08:48.901Z,21.20
2022-08-09T01:11:53.109Z,21.10
2022-08-09T01:14:35.205Z,21.10
2022-08-09T01:17:11.543Z,21.00
2022-08-09T01:20:01.959Z,21.00
2022-08-09T01:22:54.775Z,21.00
2022-08-09T01:25:53.302Z,21.00
2022-08-09T01:28:22.610Z,20.90
2022-08-09T01:30:54.845Z,20.90
2022-08-09T01:33:28.777Z,20.80
2022-08-09T01:36:07.213Z,20.80
2022-08-09T01:38:46.423Z,20.80
2022-08-09T01:41:17.131Z,20.70
2022-08-09T01:43:50.681Z,20.70
2022-08-09T01:46:26.556Z,20.70
2022-08-09T01:48:59.650Z,20.70
2022-08-09T01:51:32.153Z,20.70
2022-08-09T01:54:02.848Z,20.60
2022-08-09T01:56:32.500Z,20.60
2022-08-09T01:59:01.560Z,20.50
2022-08-09T02:01:58.989Z,20.50
2022-08-09T02:04:19.875Z,20.50
2022-08-09T02:07:08.310Z,20.50
2022-08-09T02:09:59.651Z,20.50
2022-08-09T02:12:28.964Z,20.50
2022-08-09T02:15:00.859Z,20.50
2022-08-09T02:18:01.630Z,20.50
2022-08-09T02:20:25.216Z,20.50
2022-08-09T02:23:12.143Z,20.50
2022-08-09T02:25:55.603Z,20.40
2022-08-09T02:28:35.813Z,20.40
2022-08-09T02:31:11.145Z,20.40
2022-08-09T02:34:07.212Z,20.30
2022-08-09T02:36:34.715Z,20.30
2022-08-09T02:39:06.774Z,20.20
2022-08-09T02:41:49.569Z,20.20
2022-08-09T02:44:29.164Z,20.20
2022-08-09T02:47:01.778Z,20.10
2022-08-09T02:49:41.299Z,20.10
2022-08-09T02:52:13.778Z,20.10
2022-08-09T02:54:54.061Z,20.10
2022-08-09T02:57:25.017Z,20.00
2022-08-09T03:00:20.461Z,20.00
2022-08-09T03:02:58.589Z,20.00
2022-08-09T03:05:29.863Z,19.90
2022-08-09T03:08:03.878Z,19.90
2022-08-09T03:10:33.412Z,19.90
2022-08-09T03:13:01.331Z,19.90
2022-08-09T03:16:04.484Z,19.80
2022-08-09T03:18:19.111Z,19.80
2022-08-09T03:20:59.384Z,19.90
2022-08-09T03:23:26.525Z,19.80
2022-08-09T03:25:59.213Z,19.80
2022-08-09T03:28:31.012Z,19.80
2022-08-09T03:30:59.284Z,19.80
2022-08-09T03:33:53.282Z,19.70
2022-08-09T03:36:22.141Z,19.70
2022-08-09T03:38:55.366Z,19.60
2022-08-09T03:41:44.793Z,19.70
2022-08-09T03:44:10.430Z,19.60
2022-08-09T03:46:39.416Z,19.60
2022-08-09T03:49:09.540Z,19.60
2022-08-09T03:51:54.156Z,19.60
2022-08-09T03:54:29.721Z,19.60
2022-08-09T03:57:00.896Z,19.50
2022-08-09T03:59:53.733Z,19.50
2022-08-09T04:02:26.190Z,19.40
2022-08-09T04:04:58.971Z,19.40
2022-08-09T04:07:33.783Z,19.40
2022-08-09T04:10:18.322Z,19.40
2022-08-09T04:12:51.083Z,19.30
2022-08-09T04:15:39.217Z,19.30
2022-08-09T04:18:08.706Z,19.30
2022-08-09T04:20:35.696Z,19.30
2022-08-09T04:23:03.481Z,19.30
2022-08-09T04:25:37.209Z,19.30
2022-08-09T04:28:04.330Z,19.30
2022-08-09T04:30:32.538Z,19.30
2022-08-09T04:33:00.319Z,19.30
2022-08-09T04:35:29.431Z,19.20
2022-08-09T04:38:00.105Z,19.20
2022-08-09T04:40:48.265Z,19.20
2022-08-09T04:43:23.219Z,19.20
2022-08-09T04:45:53.627Z,19.20
2022-08-09T04:48:21.484Z,19.20
2022-08-09T04:50:50.864Z,19.20
2022-08-09T04:53:17.761Z,19.20
2022-08-09T04:55:58.135Z,19.20
2022-08-09T04:58:31.938Z,19.20
2022-08-09T05:01:01.803Z,19.20
2022-08-09T05:03:40.498Z,19.20
2022-08-09T05:06:21.822Z,19.20
2022-08-09T05:09:00.279Z,19.20
2022-08-09T05:11:30.630Z,19.20
2022-08-09T05:14:06.014Z,19.20
2022-08-09T05:16:43.652Z,19.20
2022-08-09T05:19:24.387Z,19.20
2022-08-09T05:21:55.740Z,19.20
2022-08-09T05:24:24.124Z,19.20
2022-08-09T05:26:51.720Z,19.20
2022-08-09T05:29:24.072Z,19.20
2022-08-09T05:31:57.547Z,19.20
2022-08-09T05:34:32.652Z,19.20
2022-08-09T05:37:05.032Z,19.20
2022-08-09T05:39:43.451Z,19.30
2022-08-09T05:42:17.677Z,19.30
2022-08-09T05:44:50.944Z,19.30
2022-08-09T05:47:19.514Z,19.30
2022-08-09T05:50:25.547Z,19.30
2022-08-09T05:52:36.227Z,19.30
2022-08-09T05:55:08.828Z,19.30
2022-08-09T05:57:50.971Z,19.30
2022-08-09T06:00:23.777Z,19.30
2022-08-09T06:02:54.228Z,19.30
2022-08-09T06:05:30.889Z,19.30
2022-08-09T06:08:09.033Z,19.40
2022-08-09T06:10:37.956Z,19.40
2022-08-09T06:13:18.894Z,19.40
2022-08-09T06:15:52.357Z,19.40
2022-08-09T06:18:23.940Z,19.50
2022-08-09T06:20:54.757Z,19.50
2022-08-09T06:23:55.043Z,19.60
2022-08-09T06:26:20.473Z,19.60
2022-08-09T06:29:00.917Z,19.60
2022-08-09T06:31:40.538Z,19.60
2022-08-09T06:34:19.274Z,19.70
2022-08-09T06:36:46.071Z,19.70
2022-08-09T06:39:13.648Z,19.70
2022-08-09T06:42:09.304Z,19.80
2022-08-09T06:44:31.212Z,19.80
2022-08-09T06:46:58.084Z,19.80
2022-08-09T06:49:44.884Z,19.80
2022-08-09T06:52:15.702Z,19.80
2022-08-09T06:54:43.607Z,19.90
2022-08-09T06:57:12.120Z,19.90
2022-08-09T07:00:51.343Z,20.00
2022-08-09T07:02:29.433Z,20.00
2022-08-09T07:04:58.094Z,20.10
2022-08-09T07:07:58.430Z,20.20
2022-08-09T07:10:29.424Z,20.20
2022-08-09T07:12:58.872Z,20.30
2022-08-09T07:16:36.539Z,20.40
2022-08-09T07:18:14.047Z,20.50
2022-08-09T07:20:43.335Z,20.60
2022-08-09T07:23:18.214Z,20.70
2022-08-09T07:25:52.357Z,20.80
2022-08-09T07:28:28.018Z,20.90
2022-08-09T07:30:55.526Z,21.00
2022-08-09T07:33:23.300Z,21.20
2022-08-09T07:35:54.291Z,21.30
2022-08-09T07:38:21.416Z,21.40
2022-08-09T07:41:08.318Z,21.40
2022-08-09T07:43:41.088Z,21.50
2022-08-09T07:46:19.422Z,21.60
2022-08-09T07:48:52.749Z,21.70
2022-08-09T07:52:04.508Z,21.80
2022-08-09T07:54:14.143Z,21.90
2022-08-09T07:56:48.980Z,22.10
2022-08-09T07:59:34.790Z,22.30
2022-08-09T08:02:06.624Z,22.50
2022-08-09T08:04:34.178Z,22.60
2022-08-09T08:07:15.013Z,22.70
2022-08-09T08:10:04.589Z,22.90
2022-08-09T08:12:37.019Z,23.00
2022-08-09T08:15:10.107Z,23.10
2022-08-09T08:17:54.804Z,23.20
2022-08-09T08:20:28.850Z,23.30
2022-08-09T08:23:01.777Z,23.40
2022-08-09T08:25:44.798Z,23.60
2022-08-09T08:28:15.000Z,23.70
2022-08-09T08:30:44.077Z,23.80
2022-08-09T08:33:11.937Z,24.00
2022-08-09T08:36:00.115Z,24.10
2022-08-09T08:38:29.632Z,24.30
2022-08-09T08:40:58.274Z,24.40
2022-08-09T08:43:27.314Z,24.50
2022-08-09T08:46:03.805Z,24.70
2022-08-09T08:48:52.069Z,24.80
2022-08-09T08:51:23.019Z,24.90
2022-08-09T08:54:04.112Z,25.00
2022-08-09T08:56:37.606Z,25.20
2022-08-09T08:59:19.031Z,25.30
2022-08-09T09:01:52.090Z,25.40
2022-08-09T09:04:27.013Z,25.50
2022-08-09T09:06:58.211Z,25.70
2022-08-09T09:09:58.272Z,25.80
2022-08-09T09:12:23.743Z,25.90
2022-08-09T09:14:59.116Z,26.00
2022-08-09T09:17:48.295Z,26.10
2022-08-09T09:20:15.493Z,26.20
2022-08-09T09:23:01.855Z,26.20
2022-08-09T09:26:04.697Z,26.40
2022-08-09T09:29:02.311Z,26.60
2022-08-09T09:32:01.505Z,26.80
2022-08-09T09:34:14.358Z,27.10
2022-08-09T09:36:46.732Z,27.30
2022-08-09T09:39:23.241Z,27.40
2022-08-09T09:41:51.202Z,27.60
2022-08-09T09:44:35.563Z,27.70
2022-08-09T09:47:16.470Z,27.80
2022-08-09T09:50:13.458Z,27.90
2022-08-09T09:52:52.373Z,27.90
2022-08-09T09:55:27.770Z,28.00
2022-08-09T09:58:17.246Z,28.10
2022-08-09T10:00:58.404Z,28.30
2022-08-09T10:03:42.862Z,28.30
2022-08-09T10:06:11.739Z,28.40
2022-08-09T10:08:43.079Z,28.50
2022-08-09T10:11:59.572Z,28.70
2022-08-09T10:14:33.005Z,28.80
2022-08-09T10:17:55.152Z,28.80
2022-08-09T10:19:58.894Z,28.80
2022-08-09T10:22:34.964Z,29.00
2022-08-09T10:25:12.102Z,29.10
2022-08-09T10:27:57.834Z,29.10
2022-08-09T10:34:04.537Z,29.40
2022-08-09T10:36:11.422Z,29.60
2022-08-09T10:38:56.937Z,29.80
2022-08-09T10:41:26.705Z,29.90
2022-08-09T10:43:59.541Z,30.10
2022-08-09T10:47:01.059Z,30.30
2022-08-09T10:49:54.262Z,30.40
2022-08-09T10:52:42.794Z,30.40
2022-08-09T10:55:24.943Z,30.30
2022-08-09T10:57:55.682Z,30.40
2022-08-09T11:00:32.221Z,30.50
2022-08-09T11:03:13.337Z,30.60
2022-08-09T11:06:18.554Z,30.70
2022-08-09T11:08:51.809Z,30.80
2022-08-09T11:11:21.915Z,30.80
2022-08-09T11:14:27.996Z,30.90
2022-08-09T11:16:56.991Z,30.80
2022-08-09T11:20:11.136Z,30.80
2022-08-09T11:22:47.329Z,30.90
2022-08-09T11:25:45.111Z,30.90
2022-08-09T11:28:54.420Z,30.90
2022-08-09T11:31:49.230Z,30.90
2022-08-09T11:34:24.671Z,31.10
2022-08-09T11:36:52.720Z,31.20
2022-08-09T11:39:19.593Z,31.20
2022-08-09T11:41:46.925Z,31.30
2022-08-09T11:44:15.805Z,31.20
2022-08-09T11:46:59.554Z,31.20
2022-08-09T11:50:56.091Z,31.30
2022-08-09T11:53:16.549Z,31.30
2022-08-09T11:55:52.215Z,31.40
2022-08-09T11:58:30.366Z,31.20
2022-08-09T12:01:37.786Z,31.00
2022-08-09T12:04:09.907Z,30.90
2022-08-09T12:06:55.666Z,30.90
2022-08-09T12:09:28.001Z,31.00
2022-08-09T12:12:05.997Z,31.00
2022-08-09T12:14:59.130Z,31.00
2022-08-09T12:17:33.920Z,31.00
2022-08-09T12:20:16.361Z,31.20
2022-08-09T12:22:55.863Z,31.50
2022-08-09T12:25:36.017Z,31.80
2022-08-09T12:28:59.036Z,32.00
2022-08-09T12:31:58.665Z,32.30
2022-08-09T12:34:11.619Z,32.50
2022-08-09T12:36:58.945Z,32.70
2022-08-09T12:39:37.745Z,32.50
2022-08-09T12:42:09.306Z,32.30
2022-08-09T12:44:39.974Z,32.20
2022-08-09T12:47:13.199Z,32.20
2022-08-09T12:49:51.311Z,32.20
2022-08-09T12:52:19.992Z,32.20
2022-08-09T12:56:14.283Z,32.20
2022-08-09T12:57:59.015Z,32.20
2022-08-09T13:00:32.439Z,32.40
2022-08-09T13:03:03.034Z,32.60
2022-08-09T13:05:52.328Z,32.80
2022-08-09T13:08:35.464Z,33.10
2022-08-09T13:11:23.241Z,33.20
2022-08-09T13:14:37.986Z,32.90
2022-08-09T13:16:49.403Z,32.70
2022-08-09T13:20:07.511Z,32.80
2022-08-09T13:22:45.711Z,32.90
2022-08-09T13:25:12.060Z,33.00
2022-08-09T13:27:48.314Z,33.20
2022-08-09T13:30:50.735Z,33.20
2022-08-09T13:33:11.941Z,33.10
2022-08-09T13:36:38.221Z,33.10
2022-08-09T13:38:55.821Z,33.30
2022-08-09T13:41:59.482Z,33.40
2022-08-09T13:44:16.479Z,33.30
2022-08-09T13:47:19.404Z,33.20
2022-08-09T13:49:39.823Z,33.10
2022-08-09T13:52:23.770Z,33.00
2022-08-09T13:54:59.435Z,33.00
2022-08-09T13:57:40.069Z,33.20
2022-08-09T14:00:16.211Z,33.20
2022-08-09T14:03:16.931Z,33.30
2022-08-09T14:05:57.299Z,33.50
2022-08-09T14:08:19.940Z,33.70
2022-08-09T14:10:52.044Z,33.80
2022-08-09T14:14:15.286Z,33.70
2022-08-09T14:16:16.351Z,33.40
2022-08-09T14:18:49.670Z,33.20
2022-08-09T14:21:20.488Z,33.20
2022-08-09T14:23:53.843Z,33.30
2022-08-09T14:26:25.284Z,33.40
2022-08-09T14:28:57.751Z,33.30
2022-08-09T14:31:35.963Z,33.20
2022-08-09T14:34:12.609Z,33.30
2022-08-09T14:36:42.839Z,33.40
2022-08-09T14:39:10.688Z,33.40
2022-08-09T14:41:40.174Z,33.50
2022-08-09T14:44:11.048Z,33.50
2022-08-09T14:47:03.025Z,33.30
2022-08-09T14:49:26.957Z,33.30
2022-08-09T14:51:59.039Z,33.40
2022-08-09T14:54:27.849Z,33.40
2022-08-09T14:56:57.569Z,33.30
2022-08-09T14:59:25.354Z,33.30
2022-08-09T15:01:54.287Z,33.20
2022-08-09T15:04:23.596Z,33.00
2022-08-09T15:06:51.855Z,32.90
2022-08-09T15:10:03.796Z,33.00
2022-08-09T15:12:07.795Z,33.20
2022-08-09T15:14:38.491Z,33.40
2022-08-09T15:17:09.892Z,33.50
2022-08-09T15:19:59.828Z,33.60
2022-08-09T15:22:26.137Z,33.60
2022-08-09T15:25:00.141Z,33.60
2022-08-09T15:27:31.312Z,33.70
2022-08-09T15:30:55.982Z,33.60
2022-08-09T15:33:02.228Z,33.60
2022-08-09T15:35:40.853Z,33.40
2022-08-09T15:38:12.302Z,33.30
2022-08-09T15:40:43.649Z,33.20
2022-08-09T15:43:13.646Z,33.10
2022-08-09T15:46:07.918Z,33.00
2022-08-09T15:48:31.710Z,33.00
2022-08-09T15:51:02.389Z,33.00
2022-08-09T15:54:03.132Z,32.90
2022-08-09T15:56:35.910Z,32.80
2022-08-09T15:59:02.707Z,32.70
2022-08-09T16:01:31.476Z,32.40
2022-08-09T16:04:02.603Z,32.30
2022-08-09T16:06:35.630Z,32.30
2022-08-09T16:09:05.848Z,32.30
2022-08-09T16:11:33.676Z,32.30
2022-08-09T16:14:06.967Z,32.40
2022-08-09T16:16:37.242Z,32.20
2022-08-09T16:19:06.184Z,32.10
2022-08-09T16:21:35.453Z,32.10
2022-08-09T16:24:04.801Z,32.00
2022-08-09T16:26:34.470Z,31.80
2022-08-09T16:29:10.999Z,31.70
2022-08-09T16:32:18.923Z,31.60
2022-08-09T16:34:55.005Z,31.30
2022-08-09T16:37:20.317Z,31.20
2022-08-09T16:40:09.027Z,31.10
2022-08-09T16:42:36.868Z,31.10
2022-08-09T16:45:06.024Z,31.00
2022-08-09T16:48:41.192Z,30.80
2022-08-09T16:50:31.278Z,30.70
2022-08-09T16:53:00.262Z,30.80
2022-08-09T16:55:31.387Z,30.80
2022-08-09T16:58:16.595Z,30.90
2022-08-09T17:00:43.810Z,30.90
2022-08-09T17:03:21.891Z,30.90
2022-08-09T17:06:07.037Z,30.80
2022-08-09T17:08:59.977Z,30.70
2022-08-09T17:11:40.256Z,30.60
2022-08-09T17:14:26.552Z,30.60
2022-08-09T17:17:02.965Z,30.50
2022-08-09T17:20:06.107Z,30.50
2022-08-09T17:22:24.880Z,30.40
2022-08-09T17:25:03.563Z,30.40
2022-08-09T17:27:38.062Z,30.20
2022-08-09T17:30:09.500Z,30.00
2022-08-09T17:32:39.883Z,29.90
2022-08-09T17:35:13.056Z,29.80
2022-08-09T17:38:14.244Z,29.70
2022-08-09T17:40:34.499Z,29.70
2022-08-09T17:43:32.973Z,29.60
2022-08-09T17:46:05.667Z,29.60
2022-08-09T17:48:38.678Z,29.60
2022-08-09T17:51:10.035Z,29.50
2022-08-09T17:53:51.631Z,29.40
2022-08-09T17:56:21.053Z,29.40
2022-08-09T17:58:48.122Z,29.30
2022-08-09T18:01:22.126Z,29.20
2022-08-09T18:03:52.587Z,29.10
2022-08-09T18:06:31.615Z,29.00
2022-08-09T18:09:04.829Z,29.00
2022-08-09T18:11:46.810Z,28.90
2022-08-09T18:14:22.694Z,28.80
2022-08-09T18:16:50.767Z,28.80
2022-08-09T18:20:55.190Z,28.80
2022-08-09T18:22:13.069Z,28.70
2022-08-09T18:24:44.215Z,28.60
2022-08-09T18:27:49.170Z,28.60
2022-08-09T18:30:38.264Z,28.50
2022-08-09T18:32:54.640Z,28.50
2022-08-09T18:35:59.352Z,28.40
2022-08-09T18:38:09.742Z,28.30
2022-08-09T18:40:38.804Z,28.30
2022-08-09T18:43:06.521Z,28.20
2022-08-09T18:46:49.011Z,28.20
2022-08-09T18:48:30.163Z,28.20
2022-08-09T18:51:00.391Z,28.10
2022-08-09T18:53:36.702Z,28.10
2022-08-09T18:56:16.800Z,28.00
2022-08-09T18:58:47.433Z,27.90
2022-08-09T19:01:22.318Z,27.90
2022-08-09T19:04:01.172Z,27.90
2022-08-09T19:06:34.389Z,27.80
2022-08-09T19:09:04.782Z,27.70
2022-08-09T19:11:37.768Z,27.50
2022-08-09T19:14:08.407Z,27.50
2022-08-09T19:16:36.640Z,27.50
2022-08-09T19:19:23.558Z,27.60
2022-08-09T19:22:06.427Z,27.60
2022-08-09T19:24:39.725Z,27.60
2022-08-09T19:27:22.467Z,27.50
2022-08-09T19:30:21.075Z,27.40
2022-08-09T19:32:37.184Z,27.40
2022-08-09T19:35:04.602Z,27.30
2022-08-09T19:37:41.129Z,27.20
2022-08-09T19:40:19.773Z,27.20
2022-08-09T19:42:47.487Z,27.20
2022-08-09T19:45:16.766Z,27.10
2022-08-09T19:47:44.688Z,27.00
2022-08-09T19:50:49.031Z,27.00
2022-08-09T19:53:02.568Z,27.00
2022-08-09T19:56:02.500Z,27.00
2022-08-09T19:58:30.207Z,27.00
2022-08-09T20:00:58.278Z,26.90
2022-08-09T20:04:18.172Z,26.80
2022-08-09T20:06:22.510Z,26.70
2022-08-09T20:08:52.063Z,26.70
2022-08-09T20:11:26.176Z,26.70
2022-08-09T20:13:54.847Z,26.70
2022-08-09T20:16:35.605Z,26.60
2022-08-09T20:19:48.599Z,26.60
2022-08-09T20:21:56.355Z,26.50
2022-08-09T20:24:31.863Z,26.50
2022-08-09T20:27:05.732Z,26.40
2022-08-09T20:29:37.558Z,26.40
2022-08-09T20:32:29.275Z,26.30
2022-08-09T20:34:56.935Z,26.20
2022-08-09T20:37:24.177Z,26.20
2022-08-09T20:40:16.585Z,26.20
2022-08-09T20:42:38.248Z,26.10
2022-08-09T20:45:59.836Z,26.10
2022-08-09T20:47:55.094Z,26.10
2022-08-09T20:50:47.176Z,26.00
2022-08-09T20:53:22.748Z,25.90
2022-08-09T20:56:02.608Z,25.90
2022-08-09T20:58:32.248Z,25.90
2022-08-09T21:01:02.081Z,25.80
2022-08-09T21:04:07.851Z,25.80
2022-08-09T21:06:29.396Z,25.70
2022-08-09T21:08:58.553Z,25.70
2022-08-09T21:14:12.812Z,25.60
2022-08-09T21:16:43.731Z,25.50
2022-08-09T21:20:17.071Z,25.50
2022-08-09T21:22:00.402Z,25.40
2022-08-09T21:24:32.427Z,25.40
2022-08-09T21:27:51.373Z,25.30
2022-08-09T21:29:49.101Z,25.20
2022-08-09T21:32:18.827Z,25.20
2022-08-09T21:34:49.119Z,25.10
2022-08-09T21:37:18.450Z,25.10
2022-08-09T21:39:45.570Z,25.10
2022-08-09T21:42:17.701Z,25.00
2022-08-09T21:44:55.479Z,25.00
2022-08-09T21:47:23.014Z,24.90
2022-08-09T21:49:50.913Z,24.90
2022-08-09T21:52:20.685Z,24.90
2022-08-09T21:55:03.085Z,24.90
2022-08-09T21:57:39.416Z,24.80
2022-08-09T22:00:31.795Z,24.80
2022-08-09T22:03:02.351Z,24.70
2022-08-09T22:05:35.998Z,24.70
2022-08-09T22:08:06.575Z,24.70
2022-08-09T22:10:33.592Z,24.60
2022-08-09T22:13:07.318Z,24.50
2022-08-09T22:15:38.231Z,24.50
2022-08-09T22:18:12.071Z,24.50
2022-08-09T22:20:39.992Z,24.40
2022-08-09T22:23:10.335Z,24.40
2022-08-09T22:26:08.493Z,24.40
2022-08-09T22:28:32.834Z,24.40
2022-08-09T22:31:00.681Z,24.30
2022-08-09T22:33:37.512Z,24.30
2022-08-09T22:36:14.505Z,24.20
2022-08-09T22:38:46.623Z,24.20
2022-08-09T22:41:13.517Z,24.20
2022-08-09T22:44:01.496Z,24.10
2022-08-09T22:48:13.941Z,24.10
2022-08-09T22:49:14.335Z,24.10
2022-08-09T22:51:49.436Z,24.10
2022-08-09T22:54:23.525Z,24.00
2022-08-09T22:56:56.481Z,24.00
2022-08-09T22:59:55.369Z,24.00
2022-08-09T23:02:10.756Z,24.00
2022-08-09T23:04:42.519Z,23.90
2022-08-09T23:08:22.958Z,23.90
2022-08-09T23:10:14.795Z,23.80
2022-08-09T23:12:41.847Z,23.70
2022-08-09T23:15:09.122Z,23.70
2022-08-09T23:17:36.296Z,23.70
2022-08-09T23:20:07.817Z,23.70
2022-08-09T23:22:35.892Z,23.60
2022-08-09T23:25:04.931Z,23.50
2022-08-09T23:27:32.144Z,23.50
2022-08-09T23:29:59.638Z,23.50
2022-08-09T23:32:26.393Z,23.40
2022-08-09T23:34:53.398Z,23.30
2022-08-09T23:37:21.379Z,23.30
2022-08-09T23:39:49.840Z,23.20
2022-08-09T23:42:16.950Z,23.10
2022-08-09T23:44:43.832Z,23.10
2022-08-09T23:47:10.652Z,23.00
2022-08-09T23:49:37.626Z,23.00
2022-08-09T23:52:04.842Z,23.00
2022-08-09T23:54:31.766Z,22.90
2022-08-09T23:56:59.042Z,22.90
2022-08-09T23:59:46.037Z,22.80
